sensor_id;sensor_type;location;lat;lon;timestamp;pressure;altitude;pressure_sealevel;temperature;humidity
57250;BME280;43102;52.014;-0.680;2023-05-03T00:00:00;101986;;;9.45;66.14
57250;BME280;43102;52.014;-0.680;2023-05-03T00:01:00;101986;;;9.45;66.14
57250;BME280;43102;52.014;-0.680;2023-05-03T00:02:00;101986;;;9.45;66.14
57250;BME280;43102;52.014;-0.680;2023-05-03T00:03:00;101986;;;9.45;66.14
57250;BME280;43102;52.014;-0.680;2023-05-03T00:04:00;101981;;;9.42;66.24
57250;BME280;43102;52.014;-0.680;2023-05-03T00:05:00;101981;;;9.42;66.24
57250;BME280;43102;52.014;-0.680;2023-05-03T00:06:15;101981;;;9.42;66.24
57250;BME280;43102;52.014;-0.680;2023-05-03T00:07:00;101981;;;9.42;66.24
57250;BME280;43102;52.014;-0.680;2023-05-03T00:08:00;101981;;;9.42;66.24
57250;BME280;43102;52.014;-0.680;2023-05-03T00:09:00;101979;;;9.33;66.56
57250;BME280;43102;52.014;-0.680;2023-05-03T00:10:00;101979;;;9.33;66.56
57250;BME280;43102;52.014;-0.680;2023-05-03T00:11:00;101979;;;9.33;66.56
57250;BME280;43102;52.014;-0.680;2023-05-03T00:12:00;101979;;;9.33;66.56
57250;BME280;43102;52.014;-0.680;2023-05-03T00:13:00;101979;;;9.33;66.56
57250;BME280;43102;52.014;-0.680;2023-05-03T00:14:00;101979;;;9.25;66.69
57250;BME280;43102;52.014;-0.680;2023-05-03T00:15:00;101979;;;9.25;66.69
57250;BME280;43102;52.014;-0.680;2023-05-03T00:16:00;101979;;;9.25;66.69
57250;BME280;43102;52.014;-0.680;2023-05-03T00:17:00;101979;;;9.25;66.69
57250;BME280;43102;52.014;-0.680;2023-05-03T00:18:00;101979;;;9.25;66.69
57250;BME280;43102;52.014;-0.680;2023-05-03T00:19:00;101978;;;9.14;66.94
57250;BME280;43102;52.014;-0.680;2023-05-03T00:20:00;101978;;;9.14;66.94
57250;BME280;43102;52.014;-0.680;2023-05-03T00:21:00;101978;;;9.14;66.94
57250;BME280;43102;52.014;-0.680;2023-05-03T00:22:00;101978;;;9.14;66.94
57250;BME280;43102;52.014;-0.680;2023-05-03T00:23:00;101978;;;9.14;66.94
57250;BME280;43102;52.014;-0.680;2023-05-03T00:24:00;101978;;;8.98;67.47
57250;BME280;43102;52.014;-0.680;2023-05-03T00:25:00;101978;;;8.98;67.47
57250;BME280;43102;52.014;-0.680;2023-05-03T00:26:00;101978;;;8.98;67.47
57250;BME280;43102;52.014;-0.680;2023-05-03T00:27:00;101978;;;8.98;67.47
57250;BME280;43102;52.014;-0.680;2023-05-03T00:28:00;101978;;;8.98;67.47
57250;BME280;43102;52.014;-0.680;2023-05-03T00:29:00;101973;;;8.90;67.67
57250;BME280;43102;52.014;-0.680;2023-05-03T00:30:00;101973;;;8.90;67.67
57250;BME280;43102;52.014;-0.680;2023-05-03T00:31:08;101973;;;8.90;67.67
57250;BME280;43102;52.014;-0.680;2023-05-03T00:32:01;101973;;;8.90;67.67
57250;BME280;43102;52.014;-0.680;2023-05-03T00:33:00;101973;;;8.90;67.67
57250;BME280;43102;52.014;-0.680;2023-05-03T00:34:00;101972;;;8.83;67.61
57250;BME280;43102;52.014;-0.680;2023-05-03T00:35:00;101972;;;8.83;67.61
57250;BME280;43102;52.014;-0.680;2023-05-03T00:37:00;101972;;;8.83;67.61
57250;BME280;43102;52.014;-0.680;2023-05-03T00:38:00;101972;;;8.83;67.61
57250;BME280;43102;52.014;-0.680;2023-05-03T00:39:00;101972;;;8.80;67.86
57250;BME280;43102;52.014;-0.680;2023-05-03T00:40:00;101972;;;8.80;67.86
57250;BME280;43102;52.014;-0.680;2023-05-03T00:41:00;101972;;;8.80;67.86
57250;BME280;43102;52.014;-0.680;2023-05-03T00:42:01;101972;;;8.80;67.86
57250;BME280;43102;52.014;-0.680;2023-05-03T00:43:00;101972;;;8.80;67.86
57250;BME280;43102;52.014;-0.680;2023-05-03T00:44:00;101966;;;8.67;68.11
57250;BME280;43102;52.014;-0.680;2023-05-03T00:45:00;101966;;;8.67;68.11
57250;BME280;43102;52.014;-0.680;2023-05-03T00:46:00;101966;;;8.67;68.11
57250;BME280;43102;52.014;-0.680;2023-05-03T00:47:00;101966;;;8.67;68.11
57250;BME280;43102;52.014;-0.680;2023-05-03T00:48:00;101966;;;8.67;68.11
57250;BME280;43102;52.014;-0.680;2023-05-03T00:49:00;101965;;;8.59;68.29
57250;BME280;43102;52.014;-0.680;2023-05-03T00:50:00;101965;;;8.59;68.29
57250;BME280;43102;52.014;-0.680;2023-05-03T00:51:01;101965;;;8.59;68.29
57250;BME280;43102;52.014;-0.680;2023-05-03T00:52:00;101965;;;8.59;68.29
57250;BME280;43102;52.014;-0.680;2023-05-03T00:53:00;101965;;;8.59;68.29
57250;BME280;43102;52.014;-0.680;2023-05-03T00:54:00;101965;;;8.53;68.48
57250;BME280;43102;52.014;-0.680;2023-05-03T00:55:00;101965;;;8.53;68.48
57250;BME280;43102;52.014;-0.680;2023-05-03T00:56:00;101965;;;8.53;68.48
57250;BME280;43102;52.014;-0.680;2023-05-03T00:57:00;101965;;;8.53;68.48
57250;BME280;43102;52.014;-0.680;2023-05-03T00:58:00;101965;;;8.53;68.48
57250;BME280;43102;52.014;-0.680;2023-05-03T00:59:00;101963;;;8.44;68.75
57250;BME280;43102;52.014;-0.680;2023-05-03T01:00:00;101963;;;8.44;68.75
57250;BME280;43102;52.014;-0.680;2023-05-03T01:01:01;101963;;;8.44;68.75
57250;BME280;43102;52.014;-0.680;2023-05-03T01:02:00;101963;;;8.44;68.75
57250;BME280;43102;52.014;-0.680;2023-05-03T01:03:00;101963;;;8.44;68.75
57250;BME280;43102;52.014;-0.680;2023-05-03T01:04:00;101967;;;8.36;68.95
57250;BME280;43102;52.014;-0.680;2023-05-03T01:05:00;101967;;;8.36;68.95
57250;BME280;43102;52.014;-0.680;2023-05-03T01:09:02;101967;;;8.30;69.28
57250;BME280;43102;52.014;-0.680;2023-05-03T01:10:07;101967;;;8.30;69.28
57250;BME280;43102;52.014;-0.680;2023-05-03T01:11:01;101967;;;8.30;69.28
57250;BME280;43102;52.014;-0.680;2023-05-03T01:13:05;101967;;;8.30;69.28
57250;BME280;43102;52.014;-0.680;2023-05-03T01:14:05;101962;;;8.21;69.35
57250;BME280;43102;52.014;-0.680;2023-05-03T01:16:05;101962;;;8.21;69.35
57250;BME280;43102;52.014;-0.680;2023-05-03T01:17:03;101962;;;8.21;69.35
57250;BME280;43102;52.014;-0.680;2023-05-03T01:18:02;101962;;;8.21;69.35
57250;BME280;43102;52.014;-0.680;2023-05-03T01:19:02;101955;;;8.12;69.75
57250;BME280;43102;52.014;-0.680;2023-05-03T01:20:03;101955;;;8.12;69.75
57250;BME280;43102;52.014;-0.680;2023-05-03T01:21:00;101955;;;8.12;69.75
57250;BME280;43102;52.014;-0.680;2023-05-03T01:23:04;101955;;;8.12;69.75
57250;BME280;43102;52.014;-0.680;2023-05-03T01:24:06;101949;;;8.08;69.89
57250;BME280;43102;52.014;-0.680;2023-05-03T01:25:08;101949;;;8.08;69.89
57250;BME280;43102;52.014;-0.680;2023-05-03T01:26:13;101949;;;8.08;69.89
57250;BME280;43102;52.014;-0.680;2023-05-03T01:27:00;101949;;;8.08;69.89
57250;BME280;43102;52.014;-0.680;2023-05-03T01:28:00;101949;;;8.08;69.89
57250;BME280;43102;52.014;-0.680;2023-05-03T01:29:00;101955;;;8.01;70.32
57250;BME280;43102;52.014;-0.680;2023-05-03T01:30:04;101955;;;8.01;70.32
57250;BME280;43102;52.014;-0.680;2023-05-03T01:31:00;101955;;;8.01;70.32
57250;BME280;43102;52.014;-0.680;2023-05-03T01:32:00;101955;;;8.01;70.32
57250;BME280;43102;52.014;-0.680;2023-05-03T01:33:04;101955;;;8.01;70.32
57250;BME280;43102;52.014;-0.680;2023-05-03T01:34:04;101953;;;8.05;70.23
57250;BME280;43102;52.014;-0.680;2023-05-03T01:35:03;101953;;;8.05;70.23
57250;BME280;43102;52.014;-0.680;2023-05-03T01:36:03;101953;;;8.05;70.23
57250;BME280;43102;52.014;-0.680;2023-05-03T01:37:00;101953;;;8.05;70.23
57250;BME280;43102;52.014;-0.680;2023-05-03T01:38:00;101953;;;8.05;70.23
57250;BME280;43102;52.014;-0.680;2023-05-03T01:39:02;101952;;;7.97;70.40
57250;BME280;43102;52.014;-0.680;2023-05-03T01:40:01;101952;;;7.97;70.40
57250;BME280;43102;52.014;-0.680;2023-05-03T01:41:01;101952;;;7.97;70.40
57250;BME280;43102;52.014;-0.680;2023-05-03T01:42:00;101952;;;7.97;70.40
57250;BME280;43102;52.014;-0.680;2023-05-03T01:43:00;101952;;;7.97;70.40
57250;BME280;43102;52.014;-0.680;2023-05-03T01:44:00;101948;;;7.95;70.48
57250;BME280;43102;52.014;-0.680;2023-05-03T01:45:00;101948;;;7.95;70.48
57250;BME280;43102;52.014;-0.680;2023-05-03T01:46:00;101948;;;7.95;70.48
57250;BME280;43102;52.014;-0.680;2023-05-03T01:47:00;101948;;;7.95;70.48
57250;BME280;43102;52.014;-0.680;2023-05-03T01:48:00;101948;;;7.95;70.48
57250;BME280;43102;52.014;-0.680;2023-05-03T01:49:00;101954;;;7.93;70.60
57250;BME280;43102;52.014;-0.680;2023-05-03T01:50:00;101954;;;7.93;70.60
57250;BME280;43102;52.014;-0.680;2023-05-03T01:51:00;101954;;;7.93;70.60
57250;BME280;43102;52.014;-0.680;2023-05-03T01:52:00;101954;;;7.93;70.60
57250;BME280;43102;52.014;-0.680;2023-05-03T01:53:00;101954;;;7.93;70.60
57250;BME280;43102;52.014;-0.680;2023-05-03T01:54:00;101953;;;7.87;70.69
57250;BME280;43102;52.014;-0.680;2023-05-03T01:55:00;101953;;;7.87;70.69
57250;BME280;43102;52.014;-0.680;2023-05-03T01:56:00;101953;;;7.87;70.69
57250;BME280;43102;52.014;-0.680;2023-05-03T01:57:00;101953;;;7.87;70.69
57250;BME280;43102;52.014;-0.680;2023-05-03T01:58:00;101953;;;7.87;70.69
57250;BME280;43102;52.014;-0.680;2023-05-03T01:59:00;101959;;;7.74;71.00
57250;BME280;43102;52.014;-0.680;2023-05-03T02:00:00;101959;;;7.74;71.00
57250;BME280;43102;52.014;-0.680;2023-05-03T02:01:00;101959;;;7.74;71.00
57250;BME280;43102;52.014;-0.680;2023-05-03T02:02:00;101959;;;7.74;71.00
57250;BME280;43102;52.014;-0.680;2023-05-03T02:03:00;101959;;;7.74;71.00
57250;BME280;43102;52.014;-0.680;2023-05-03T02:04:00;101958;;;7.67;71.26
57250;BME280;43102;52.014;-0.680;2023-05-03T02:05:00;101958;;;7.67;71.26
57250;BME280;43102;52.014;-0.680;2023-05-03T02:06:00;101958;;;7.67;71.26
57250;BME280;43102;52.014;-0.680;2023-05-03T02:07:00;101958;;;7.67;71.26
57250;BME280;43102;52.014;-0.680;2023-05-03T02:08:00;101958;;;7.67;71.26
57250;BME280;43102;52.014;-0.680;2023-05-03T02:09:00;101956;;;7.64;71.45
57250;BME280;43102;52.014;-0.680;2023-05-03T02:10:00;101956;;;7.64;71.45
57250;BME280;43102;52.014;-0.680;2023-05-03T02:11:00;101956;;;7.64;71.45
57250;BME280;43102;52.014;-0.680;2023-05-03T02:12:00;101956;;;7.64;71.45
57250;BME280;43102;52.014;-0.680;2023-05-03T02:13:00;101956;;;7.64;71.45
57250;BME280;43102;52.014;-0.680;2023-05-03T02:14:00;101957;;;7.56;71.52
57250;BME280;43102;52.014;-0.680;2023-05-03T02:15:00;101957;;;7.56;71.52
57250;BME280;43102;52.014;-0.680;2023-05-03T02:16:00;101957;;;7.56;71.52
57250;BME280;43102;52.014;-0.680;2023-05-03T02:17:00;101957;;;7.56;71.52
57250;BME280;43102;52.014;-0.680;2023-05-03T02:18:00;101957;;;7.56;71.52
57250;BME280;43102;52.014;-0.680;2023-05-03T02:19:00;101957;;;7.48;71.58
57250;BME280;43102;52.014;-0.680;2023-05-03T02:20:00;101957;;;7.48;71.58
57250;BME280;43102;52.014;-0.680;2023-05-03T02:21:00;101957;;;7.48;71.58
57250;BME280;43102;52.014;-0.680;2023-05-03T02:22:00;101957;;;7.48;71.58
57250;BME280;43102;52.014;-0.680;2023-05-03T02:23:00;101957;;;7.48;71.58
57250;BME280;43102;52.014;-0.680;2023-05-03T02:24:00;101954;;;7.46;71.71
57250;BME280;43102;52.014;-0.680;2023-05-03T02:25:00;101954;;;7.46;71.71
57250;BME280;43102;52.014;-0.680;2023-05-03T02:26:00;101954;;;7.46;71.71
57250;BME280;43102;52.014;-0.680;2023-05-03T02:27:01;101954;;;7.46;71.71
57250;BME280;43102;52.014;-0.680;2023-05-03T02:28:00;101954;;;7.46;71.71
57250;BME280;43102;52.014;-0.680;2023-05-03T02:29:00;101949;;;7.42;71.84
57250;BME280;43102;52.014;-0.680;2023-05-03T02:30:00;101949;;;7.42;71.84
57250;BME280;43102;52.014;-0.680;2023-05-03T02:31:00;101949;;;7.42;71.84
57250;BME280;43102;52.014;-0.680;2023-05-03T02:32:00;101949;;;7.42;71.84
57250;BME280;43102;52.014;-0.680;2023-05-03T02:33:00;101949;;;7.42;71.84
57250;BME280;43102;52.014;-0.680;2023-05-03T02:34:00;101949;;;7.45;71.80
57250;BME280;43102;52.014;-0.680;2023-05-03T02:35:00;101949;;;7.45;71.80
57250;BME280;43102;52.014;-0.680;2023-05-03T02:36:00;101949;;;7.45;71.80
57250;BME280;43102;52.014;-0.680;2023-05-03T02:37:00;101949;;;7.45;71.80
57250;BME280;43102;52.014;-0.680;2023-05-03T02:38:00;101949;;;7.45;71.80
57250;BME280;43102;52.014;-0.680;2023-05-03T02:39:00;101939;;;7.47;71.78
57250;BME280;43102;52.014;-0.680;2023-05-03T02:40:00;101939;;;7.47;71.78
57250;BME280;43102;52.014;-0.680;2023-05-03T02:41:00;101939;;;7.47;71.78
57250;BME280;43102;52.014;-0.680;2023-05-03T02:42:00;101939;;;7.47;71.78
57250;BME280;43102;52.014;-0.680;2023-05-03T02:43:00;101939;;;7.47;71.78
57250;BME280;43102;52.014;-0.680;2023-05-03T02:44:00;101935;;;7.48;71.76
57250;BME280;43102;52.014;-0.680;2023-05-03T02:45:00;101935;;;7.48;71.76
57250;BME280;43102;52.014;-0.680;2023-05-03T02:46:00;101935;;;7.48;71.76
57250;BME280;43102;52.014;-0.680;2023-05-03T02:47:00;101935;;;7.48;71.76
57250;BME280;43102;52.014;-0.680;2023-05-03T02:48:00;101935;;;7.48;71.76
57250;BME280;43102;52.014;-0.680;2023-05-03T02:49:00;101926;;;7.45;71.89
57250;BME280;43102;52.014;-0.680;2023-05-03T02:50:00;101926;;;7.45;71.89
57250;BME280;43102;52.014;-0.680;2023-05-03T02:51:01;101926;;;7.45;71.89
57250;BME280;43102;52.014;-0.680;2023-05-03T02:52:00;101926;;;7.45;71.89
57250;BME280;43102;52.014;-0.680;2023-05-03T02:53:00;101926;;;7.45;71.89
57250;BME280;43102;52.014;-0.680;2023-05-03T02:54:00;101916;;;7.37;71.82
57250;BME280;43102;52.014;-0.680;2023-05-03T02:55:00;101916;;;7.37;71.82
57250;BME280;43102;52.014;-0.680;2023-05-03T02:56:00;101916;;;7.37;71.82
57250;BME280;43102;52.014;-0.680;2023-05-03T02:57:00;101916;;;7.37;71.82
57250;BME280;43102;52.014;-0.680;2023-05-03T02:58:00;101916;;;7.37;71.82
57250;BME280;43102;52.014;-0.680;2023-05-03T02:59:00;101921;;;7.22;72.11
57250;BME280;43102;52.014;-0.680;2023-05-03T03:00:00;101921;;;7.22;72.11
57250;BME280;43102;52.014;-0.680;2023-05-03T03:01:00;101921;;;7.22;72.11
57250;BME280;43102;52.014;-0.680;2023-05-03T03:02:00;101921;;;7.22;72.11
57250;BME280;43102;52.014;-0.680;2023-05-03T03:03:00;101921;;;7.22;72.11
57250;BME280;43102;52.014;-0.680;2023-05-03T03:04:00;101915;;;7.17;72.35
57250;BME280;43102;52.014;-0.680;2023-05-03T03:05:00;101915;;;7.17;72.35
57250;BME280;43102;52.014;-0.680;2023-05-03T03:06:00;101915;;;7.17;72.35
57250;BME280;43102;52.014;-0.680;2023-05-03T03:07:00;101915;;;7.17;72.35
57250;BME280;43102;52.014;-0.680;2023-05-03T03:08:00;101915;;;7.17;72.35
57250;BME280;43102;52.014;-0.680;2023-05-03T03:09:00;101901;;;7.11;72.53
57250;BME280;43102;52.014;-0.680;2023-05-03T03:10:00;101901;;;7.11;72.53
57250;BME280;43102;52.014;-0.680;2023-05-03T03:11:00;101901;;;7.11;72.53
57250;BME280;43102;52.014;-0.680;2023-05-03T03:12:00;101901;;;7.11;72.53
57250;BME280;43102;52.014;-0.680;2023-05-03T03:13:00;101901;;;7.11;72.53
57250;BME280;43102;52.014;-0.680;2023-05-03T03:14:00;101891;;;7.03;72.66
57250;BME280;43102;52.014;-0.680;2023-05-03T03:15:00;101891;;;7.03;72.66
57250;BME280;43102;52.014;-0.680;2023-05-03T03:16:00;101891;;;7.03;72.66
57250;BME280;43102;52.014;-0.680;2023-05-03T03:17:00;101891;;;7.03;72.66
57250;BME280;43102;52.014;-0.680;2023-05-03T03:18:00;101891;;;7.03;72.66
57250;BME280;43102;52.014;-0.680;2023-05-03T03:19:00;101891;;;7.03;72.67
57250;BME280;43102;52.014;-0.680;2023-05-03T03:20:00;101891;;;7.03;72.67
57250;BME280;43102;52.014;-0.680;2023-05-03T03:21:00;101891;;;7.03;72.67
57250;BME280;43102;52.014;-0.680;2023-05-03T03:22:00;101891;;;7.03;72.67
57250;BME280;43102;52.014;-0.680;2023-05-03T03:23:00;101891;;;7.03;72.67
57250;BME280;43102;52.014;-0.680;2023-05-03T03:24:00;101888;;;6.98;72.88
57250;BME280;43102;52.014;-0.680;2023-05-03T03:25:00;101888;;;6.98;72.88
57250;BME280;43102;52.014;-0.680;2023-05-03T03:26:00;101888;;;6.98;72.88
57250;BME280;43102;52.014;-0.680;2023-05-03T03:27:00;101888;;;6.98;72.88
57250;BME280;43102;52.014;-0.680;2023-05-03T03:28:00;101888;;;6.98;72.88
57250;BME280;43102;52.014;-0.680;2023-05-03T03:29:00;101878;;;6.96;72.95
57250;BME280;43102;52.014;-0.680;2023-05-03T03:30:00;101878;;;6.96;72.95
57250;BME280;43102;52.014;-0.680;2023-05-03T03:31:00;101878;;;6.96;72.95
57250;BME280;43102;52.014;-0.680;2023-05-03T03:32:00;101878;;;6.96;72.95
57250;BME280;43102;52.014;-0.680;2023-05-03T03:33:00;101878;;;6.96;72.95
57250;BME280;43102;52.014;-0.680;2023-05-03T03:34:00;101874;;;6.94;73.00
57250;BME280;43102;52.014;-0.680;2023-05-03T03:35:00;101874;;;6.94;73.00
57250;BME280;43102;52.014;-0.680;2023-05-03T03:36:00;101874;;;6.94;73.00
57250;BME280;43102;52.014;-0.680;2023-05-03T03:37:00;101874;;;6.94;73.00
57250;BME280;43102;52.014;-0.680;2023-05-03T03:38:00;101874;;;6.94;73.00
57250;BME280;43102;52.014;-0.680;2023-05-03T03:39:00;101877;;;6.94;72.88
57250;BME280;43102;52.014;-0.680;2023-05-03T03:40:00;101877;;;6.94;72.88
57250;BME280;43102;52.014;-0.680;2023-05-03T03:41:00;101877;;;6.94;72.88
57250;BME280;43102;52.014;-0.680;2023-05-03T03:42:00;101877;;;6.94;72.88
57250;BME280;43102;52.014;-0.680;2023-05-03T03:43:00;101877;;;6.94;72.88
57250;BME280;43102;52.014;-0.680;2023-05-03T03:44:00;101879;;;6.90;73.01
57250;BME280;43102;52.014;-0.680;2023-05-03T03:45:00;101879;;;6.90;73.01
57250;BME280;43102;52.014;-0.680;2023-05-03T03:46:00;101879;;;6.90;73.01
57250;BME280;43102;52.014;-0.680;2023-05-03T03:47:00;101879;;;6.90;73.01
57250;BME280;43102;52.014;-0.680;2023-05-03T03:48:00;101879;;;6.90;73.01
57250;BME280;43102;52.014;-0.680;2023-05-03T03:49:00;101876;;;6.88;72.92
57250;BME280;43102;52.014;-0.680;2023-05-03T03:50:00;101876;;;6.88;72.92
57250;BME280;43102;52.014;-0.680;2023-05-03T03:51:00;101876;;;6.88;72.92
57250;BME280;43102;52.014;-0.680;2023-05-03T03:52:00;101876;;;6.88;72.92
57250;BME280;43102;52.014;-0.680;2023-05-03T03:53:00;101876;;;6.88;72.92
57250;BME280;43102;52.014;-0.680;2023-05-03T03:54:00;101887;;;6.73;73.46
57250;BME280;43102;52.014;-0.680;2023-05-03T03:55:00;101887;;;6.73;73.46
57250;BME280;43102;52.014;-0.680;2023-05-03T03:56:00;101887;;;6.73;73.46
57250;BME280;43102;52.014;-0.680;2023-05-03T03:57:00;101887;;;6.73;73.46
57250;BME280;43102;52.014;-0.680;2023-05-03T03:58:00;101887;;;6.73;73.46
57250;BME280;43102;52.014;-0.680;2023-05-03T03:59:00;101887;;;6.63;74.14
57250;BME280;43102;52.014;-0.680;2023-05-03T04:00:00;101887;;;6.63;74.14
57250;BME280;43102;52.014;-0.680;2023-05-03T04:01:00;101887;;;6.63;74.14
57250;BME280;43102;52.014;-0.680;2023-05-03T04:02:00;101887;;;6.63;74.14
57250;BME280;43102;52.014;-0.680;2023-05-03T04:03:00;101887;;;6.63;74.14
57250;BME280;43102;52.014;-0.680;2023-05-03T04:04:00;101887;;;6.59;74.46
57250;BME280;43102;52.014;-0.680;2023-05-03T04:05:00;101887;;;6.59;74.46
57250;BME280;43102;52.014;-0.680;2023-05-03T04:06:00;101887;;;6.59;74.46
57250;BME280;43102;52.014;-0.680;2023-05-03T04:07:00;101887;;;6.59;74.46
57250;BME280;43102;52.014;-0.680;2023-05-03T04:08:00;101887;;;6.59;74.46
57250;BME280;43102;52.014;-0.680;2023-05-03T04:09:00;101891;;;6.56;74.56
57250;BME280;43102;52.014;-0.680;2023-05-03T04:10:00;101891;;;6.56;74.56
57250;BME280;43102;52.014;-0.680;2023-05-03T04:11:01;101891;;;6.56;74.56
57250;BME280;43102;52.014;-0.680;2023-05-03T04:12:00;101891;;;6.56;74.56
57250;BME280;43102;52.014;-0.680;2023-05-03T04:13:00;101891;;;6.56;74.56
57250;BME280;43102;52.014;-0.680;2023-05-03T04:14:00;101896;;;6.50;74.45
57250;BME280;43102;52.014;-0.680;2023-05-03T04:15:00;101896;;;6.50;74.45
57250;BME280;43102;52.014;-0.680;2023-05-03T04:16:00;101896;;;6.50;74.45
57250;BME280;43102;52.014;-0.680;2023-05-03T04:17:00;101896;;;6.50;74.45
57250;BME280;43102;52.014;-0.680;2023-05-03T04:18:00;101896;;;6.50;74.45
57250;BME280;43102;52.014;-0.680;2023-05-03T04:19:00;101899;;;6.50;74.58
57250;BME280;43102;52.014;-0.680;2023-05-03T04:20:01;101899;;;6.50;74.58
57250;BME280;43102;52.014;-0.680;2023-05-03T04:21:00;101899;;;6.50;74.58
57250;BME280;43102;52.014;-0.680;2023-05-03T04:22:00;101899;;;6.50;74.58
57250;BME280;43102;52.014;-0.680;2023-05-03T04:23:00;101899;;;6.50;74.58
57250;BME280;43102;52.014;-0.680;2023-05-03T04:24:00;101895;;;6.45;74.56
57250;BME280;43102;52.014;-0.680;2023-05-03T04:25:00;101895;;;6.45;74.56
57250;BME280;43102;52.014;-0.680;2023-05-03T04:26:00;101895;;;6.45;74.56
57250;BME280;43102;52.014;-0.680;2023-05-03T04:27:00;101895;;;6.45;74.56
57250;BME280;43102;52.014;-0.680;2023-05-03T04:28:00;101895;;;6.45;74.56
57250;BME280;43102;52.014;-0.680;2023-05-03T04:29:00;101900;;;6.40;74.58
57250;BME280;43102;52.014;-0.680;2023-05-03T04:30:00;101900;;;6.40;74.58
57250;BME280;43102;52.014;-0.680;2023-05-03T04:31:00;101900;;;6.40;74.58
57250;BME280;43102;52.014;-0.680;2023-05-03T04:32:00;101900;;;6.40;74.58
57250;BME280;43102;52.014;-0.680;2023-05-03T04:33:00;101900;;;6.40;74.58
57250;BME280;43102;52.014;-0.680;2023-05-03T04:34:00;101901;;;6.32;74.48
57250;BME280;43102;52.014;-0.680;2023-05-03T04:35:00;101901;;;6.32;74.48
57250;BME280;43102;52.014;-0.680;2023-05-03T04:36:00;101901;;;6.32;74.48
57250;BME280;43102;52.014;-0.680;2023-05-03T04:37:00;101901;;;6.32;74.48
57250;BME280;43102;52.014;-0.680;2023-05-03T04:38:00;101901;;;6.32;74.48
57250;BME280;43102;52.014;-0.680;2023-05-03T04:39:00;101902;;;6.27;74.53
57250;BME280;43102;52.014;-0.680;2023-05-03T04:40:00;101902;;;6.27;74.53
57250;BME280;43102;52.014;-0.680;2023-05-03T04:41:00;101902;;;6.27;74.53
57250;BME280;43102;52.014;-0.680;2023-05-03T04:42:00;101902;;;6.27;74.53
57250;BME280;43102;52.014;-0.680;2023-05-03T04:43:00;101902;;;6.27;74.53
57250;BME280;43102;52.014;-0.680;2023-05-03T04:44:00;101899;;;6.26;74.68
57250;BME280;43102;52.014;-0.680;2023-05-03T04:45:00;101899;;;6.26;74.68
57250;BME280;43102;52.014;-0.680;2023-05-03T04:46:00;101899;;;6.26;74.68
57250;BME280;43102;52.014;-0.680;2023-05-03T04:47:00;101899;;;6.26;74.68
57250;BME280;43102;52.014;-0.680;2023-05-03T04:48:00;101899;;;6.26;74.68
57250;BME280;43102;52.014;-0.680;2023-05-03T04:49:00;101895;;;6.20;74.86
57250;BME280;43102;52.014;-0.680;2023-05-03T04:50:00;101895;;;6.20;74.86
57250;BME280;43102;52.014;-0.680;2023-05-03T04:51:00;101895;;;6.20;74.86
57250;BME280;43102;52.014;-0.680;2023-05-03T04:52:00;101895;;;6.20;74.86
57250;BME280;43102;52.014;-0.680;2023-05-03T04:53:00;101895;;;6.20;74.86
57250;BME280;43102;52.014;-0.680;2023-05-03T04:54:00;101888;;;6.28;75.00
57250;BME280;43102;52.014;-0.680;2023-05-03T04:55:00;101888;;;6.28;75.00
57250;BME280;43102;52.014;-0.680;2023-05-03T04:56:00;101888;;;6.28;75.00
57250;BME280;43102;52.014;-0.680;2023-05-03T04:57:00;101888;;;6.28;75.00
57250;BME280;43102;52.014;-0.680;2023-05-03T04:58:00;101888;;;6.28;75.00
57250;BME280;43102;52.014;-0.680;2023-05-03T04:59:00;101882;;;6.28;74.98
57250;BME280;43102;52.014;-0.680;2023-05-03T05:00:00;101882;;;6.28;74.98
57250;BME280;43102;52.014;-0.680;2023-05-03T05:01:00;101882;;;6.28;74.98
57250;BME280;43102;52.014;-0.680;2023-05-03T05:02:00;101882;;;6.28;74.98
57250;BME280;43102;52.014;-0.680;2023-05-03T05:03:00;101882;;;6.28;74.98
57250;BME280;43102;52.014;-0.680;2023-05-03T05:04:00;101879;;;6.22;75.02
57250;BME280;43102;52.014;-0.680;2023-05-03T05:05:00;101879;;;6.22;75.02
57250;BME280;43102;52.014;-0.680;2023-05-03T05:06:00;101879;;;6.22;75.02
57250;BME280;43102;52.014;-0.680;2023-05-03T05:07:00;101879;;;6.22;75.02
57250;BME280;43102;52.014;-0.680;2023-05-03T05:08:00;101879;;;6.22;75.02
57250;BME280;43102;52.014;-0.680;2023-05-03T05:09:00;101888;;;6.26;75.13
57250;BME280;43102;52.014;-0.680;2023-05-03T05:10:00;101888;;;6.26;75.13
57250;BME280;43102;52.014;-0.680;2023-05-03T05:11:01;101888;;;6.26;75.13
57250;BME280;43102;52.014;-0.680;2023-05-03T05:12:00;101888;;;6.26;75.13
57250;BME280;43102;52.014;-0.680;2023-05-03T05:13:00;101888;;;6.26;75.13
57250;BME280;43102;52.014;-0.680;2023-05-03T05:14:00;101891;;;6.29;75.49
57250;BME280;43102;52.014;-0.680;2023-05-03T05:15:00;101891;;;6.29;75.49
57250;BME280;43102;52.014;-0.680;2023-05-03T05:16:00;101891;;;6.29;75.49
57250;BME280;43102;52.014;-0.680;2023-05-03T05:17:00;101891;;;6.29;75.49
57250;BME280;43102;52.014;-0.680;2023-05-03T05:18:00;101891;;;6.29;75.49
57250;BME280;43102;52.014;-0.680;2023-05-03T05:19:00;101890;;;6.32;75.76
57250;BME280;43102;52.014;-0.680;2023-05-03T05:20:00;101890;;;6.32;75.76
57250;BME280;43102;52.014;-0.680;2023-05-03T05:21:00;101890;;;6.32;75.76
57250;BME280;43102;52.014;-0.680;2023-05-03T05:22:00;101890;;;6.32;75.76
57250;BME280;43102;52.014;-0.680;2023-05-03T05:23:00;101890;;;6.32;75.76
57250;BME280;43102;52.014;-0.680;2023-05-03T05:24:00;101888;;;6.43;75.92
57250;BME280;43102;52.014;-0.680;2023-05-03T05:25:00;101888;;;6.43;75.92
57250;BME280;43102;52.014;-0.680;2023-05-03T05:26:00;101888;;;6.43;75.92
57250;BME280;43102;52.014;-0.680;2023-05-03T05:27:00;101888;;;6.43;75.92
57250;BME280;43102;52.014;-0.680;2023-05-03T05:28:00;101888;;;6.43;75.92
57250;BME280;43102;52.014;-0.680;2023-05-03T05:29:00;101889;;;6.52;75.90
57250;BME280;43102;52.014;-0.680;2023-05-03T05:30:00;101889;;;6.52;75.90
57250;BME280;43102;52.014;-0.680;2023-05-03T05:31:00;101889;;;6.52;75.90
57250;BME280;43102;52.014;-0.680;2023-05-03T05:32:00;101889;;;6.52;75.90
57250;BME280;43102;52.014;-0.680;2023-05-03T05:33:00;101889;;;6.52;75.90